sensor_id;sensor_type;location;lat;lon;timestamp;P1;durP1;ratioP1;P2;durP2;ratioP2
13079;SDS011;6606;49.154;9.280;2022-10-18T00:01:29;8.50;;;4.43;;
13079;SDS011;6606;49.154;9.280;2022-10-18T00:03:56;9.07;;;4.43;;
13079;SDS011;6606;49.154;9.280;2022-10-18T00:06:23;10.43;;;4.93;;
13079;SDS011;6606;49.154;9.280;2022-10-18T00:08:49;6.53;;;4.80;;
13079;SDS011;6606;49.154;9.280;2022-10-18T00:11:17;8.43;;;4.23;;
13079;SDS011;6606;49.154;9.280;2022-10-18T00:13:44;6.80;;;4.70;;
13079;SDS011;6606;49.154;9.280;2022-10-18T00:16:12;10.87;;;5.50;;
13079;SDS011;6606;49.154;9.280;2022-10-18T00:18:40;12.87;;;4.17;;
13079;SDS011;6606;49.154;9.280;2022-10-18T00:21:09;6.93;;;5.17;;
13079;SDS011;6606;49.154;9.280;2022-10-18T00:23:38;8.60;;;4.23;;
13079;SDS011;6606;49.154;9.280;2022-10-18T00:26:09;8.37;;;4.70;;
13079;SDS011;6606;49.154;9.280;2022-10-18T00:28:38;10.50;;;5.03;;
13079;SDS011;6606;49.154;9.280;2022-10-18T00:31:10;6.07;;;3.93;;
13079;SDS011;6606;49.154;9.280;2022-10-18T00:33:38;10.13;;;5.07;;
13079;SDS011;6606;49.154;9.280;2022-10-18T00:36:06;9.77;;;4.40;;
13079;SDS011;6606;49.154;9.280;2022-10-18T00:38:33;6.23;;;4.47;;
13079;SDS011;6606;49.154;9.280;2022-10-18T00:40:59;6.93;;;4.87;;
13079;SDS011;6606;49.154;9.280;2022-10-18T00:43:26;9.10;;;4.60;;
13079;SDS011;6606;49.154;9.280;2022-10-18T00:45:55;7.47;;;4.70;;
13079;SDS011;6606;49.154;9.280;2022-10-18T00:48:21;12.50;;;4.80;;
13079;SDS011;6606;49.154;9.280;2022-10-18T00:50:49;7.53;;;4.57;;
13079;SDS011;6606;49.154;9.280;2022-10-18T00:53:18;6.77;;;4.00;;
13079;SDS011;6606;49.154;9.280;2022-10-18T00:55:47;8.70;;;4.80;;
13079;SDS011;6606;49.154;9.280;2022-10-18T00:58:15;9.37;;;4.50;;
13079;SDS011;6606;49.154;9.280;2022-10-18T01:00:44;13.73;;;5.53;;
13079;SDS011;6606;49.154;9.280;2022-10-18T01:03:12;6.63;;;4.33;;
13079;SDS011;6606;49.154;9.280;2022-10-18T01:05:40;6.60;;;4.33;;
13079;SDS011;6606;49.154;9.280;2022-10-18T01:08:15;5.40;;;4.43;;
13079;SDS011;6606;49.154;9.280;2022-10-18T01:11:01;7.23;;;4.43;;
13079;SDS011;6606;49.154;9.280;2022-10-18T01:13:43;6.53;;;4.57;;
13079;SDS011;6606;49.154;9.280;2022-10-18T01:16:23;9.67;;;5.00;;
13079;SDS011;6606;49.154;9.280;2022-10-18T01:18:59;10.33;;;5.10;;
13079;SDS011;6606;49.154;9.280;2022-10-18T01:21:32;8.13;;;4.60;;
13079;SDS011;6606;49.154;9.280;2022-10-18T01:27:19;8.70;;;4.13;;
13079;SDS011;6606;49.154;9.280;2022-10-18T01:30:03;8.10;;;4.30;;
13079;SDS011;6606;49.154;9.280;2022-10-18T01:32:48;7.63;;;4.20;;
13079;SDS011;6606;49.154;9.280;2022-10-18T01:35:18;12.37;;;4.77;;
13079;SDS011;6606;49.154;9.280;2022-10-18T01:37:49;6.40;;;3.90;;
13079;SDS011;6606;49.154;9.280;2022-10-18T01:40:21;7.50;;;4.47;;
13079;SDS011;6606;49.154;9.280;2022-10-18T01:42:50;7.23;;;3.50;;
13079;SDS011;6606;49.154;9.280;2022-10-18T01:45:18;4.83;;;3.70;;
13079;SDS011;6606;49.154;9.280;2022-10-18T01:47:47;7.97;;;4.30;;
13079;SDS011;6606;49.154;9.280;2022-10-18T01:50:21;10.40;;;4.10;;
13079;SDS011;6606;49.154;9.280;2022-10-18T01:52:53;6.77;;;3.60;;
13079;SDS011;6606;49.154;9.280;2022-10-18T01:55:20;6.93;;;4.30;;
13079;SDS011;6606;49.154;9.280;2022-10-18T01:57:55;11.37;;;4.57;;
13079;SDS011;6606;49.154;9.280;2022-10-18T02:00:30;11.53;;;5.33;;
13079;SDS011;6606;49.154;9.280;2022-10-18T02:03:03;12.37;;;5.23;;
13079;SDS011;6606;49.154;9.280;2022-10-18T02:05:37;6.77;;;4.70;;
13079;SDS011;6606;49.154;9.280;2022-10-18T02:08:10;8.80;;;4.50;;
13079;SDS011;6606;49.154;9.280;2022-10-18T02:10:42;6.00;;;4.20;;
13079;SDS011;6606;49.154;9.280;2022-10-18T02:13:13;12.07;;;4.83;;
13079;SDS011;6606;49.154;9.280;2022-10-18T02:15:46;7.90;;;4.67;;
13079;SDS011;6606;49.154;9.280;2022-10-18T02:18:17;8.40;;;4.40;;
13079;SDS011;6606;49.154;9.280;2022-10-18T02:20:47;7.33;;;4.40;;
13079;SDS011;6606;49.154;9.280;2022-10-18T02:23:14;6.70;;;4.73;;
13079;SDS011;6606;49.154;9.280;2022-10-18T02:25:45;6.90;;;4.80;;
13079;SDS011;6606;49.154;9.280;2022-10-18T02:28:12;7.33;;;5.27;;
13079;SDS011;6606;49.154;9.280;2022-10-18T02:30:40;10.67;;;4.30;;
13079;SDS011;6606;49.154;9.280;2022-10-18T02:33:17;8.87;;;4.53;;
13079;SDS011;6606;49.154;9.280;2022-10-18T02:35:48;8.37;;;5.03;;
13079;SDS011;6606;49.154;9.280;2022-10-18T02:38:18;8.63;;;5.57;;
13079;SDS011;6606;49.154;9.280;2022-10-18T02:40:48;8.03;;;4.57;;
13079;SDS011;6606;49.154;9.280;2022-10-18T02:43:15;9.17;;;4.40;;
13079;SDS011;6606;49.154;9.280;2022-10-18T02:45:42;7.47;;;4.43;;
13079;SDS011;6606;49.154;9.280;2022-10-18T02:48:10;6.77;;;5.27;;
13079;SDS011;6606;49.154;9.280;2022-10-18T02:50:37;7.33;;;5.40;;
13079;SDS011;6606;49.154;9.280;2022-10-18T02:53:04;9.00;;;4.70;;
13079;SDS011;6606;49.154;9.280;2022-10-18T02:55:30;14.70;;;5.37;;
13079;SDS011;6606;49.154;9.280;2022-10-18T02:57:57;9.47;;;5.07;;
13079;SDS011;6606;49.154;9.280;2022-10-18T03:00:24;9.30;;;4.93;;
13079;SDS011;6606;49.154;9.280;2022-10-18T03:02:51;7.03;;;4.90;;
13079;SDS011;6606;49.154;9.280;2022-10-18T03:05:19;7.93;;;4.90;;
13079;SDS011;6606;49.154;9.280;2022-10-18T03:07:46;10.73;;;5.17;;
13079;SDS011;6606;49.154;9.280;2022-10-18T03:10:13;12.33;;;5.03;;
13079;SDS011;6606;49.154;9.280;2022-10-18T03:12:40;12.27;;;5.30;;
13079;SDS011;6606;49.154;9.280;2022-10-18T03:15:07;6.73;;;5.53;;
13079;SDS011;6606;49.154;9.280;2022-10-18T03:17:34;8.43;;;4.97;;
13079;SDS011;6606;49.154;9.280;2022-10-18T03:20:01;10.73;;;5.57;;
13079;SDS011;6606;49.154;9.280;2022-10-18T03:22:29;8.17;;;5.43;;
13079;SDS011;6606;49.154;9.280;2022-10-18T03:24:56;8.40;;;5.63;;
13079;SDS011;6606;49.154;9.280;2022-10-18T03:27:23;11.17;;;6.40;;
13079;SDS011;6606;49.154;9.280;2022-10-18T03:29:49;9.70;;;5.10;;
13079;SDS011;6606;49.154;9.280;2022-10-18T03:32:16;8.13;;;5.57;;
13079;SDS011;6606;49.154;9.280;2022-10-18T03:34:43;11.07;;;5.30;;
13079;SDS011;6606;49.154;9.280;2022-10-18T03:37:10;12.57;;;5.93;;
13079;SDS011;6606;49.154;9.280;2022-10-18T03:39:38;12.43;;;6.20;;
13079;SDS011;6606;49.154;9.280;2022-10-18T03:42:05;7.27;;;5.53;;
13079;SDS011;6606;49.154;9.280;2022-10-18T03:44:31;8.87;;;5.20;;
13079;SDS011;6606;49.154;9.280;2022-10-18T03:46:58;13.90;;;5.80;;
13079;SDS011;6606;49.154;9.280;2022-10-18T03:49:25;9.77;;;5.73;;
13079;SDS011;6606;49.154;9.280;2022-10-18T03:51:51;10.80;;;6.50;;
13079;SDS011;6606;49.154;9.280;2022-10-18T03:54:18;11.00;;;5.90;;
13079;SDS011;6606;49.154;9.280;2022-10-18T03:56:46;12.10;;;6.67;;
13079;SDS011;6606;49.154;9.280;2022-10-18T03:59:13;10.37;;;6.27;;
13079;SDS011;6606;49.154;9.280;2022-10-18T04:01:41;6.07;;;4.90;;
13079;SDS011;6606;49.154;9.280;2022-10-18T04:04:07;9.77;;;5.03;;
13079;SDS011;6606;49.154;9.280;2022-10-18T04:06:34;10.63;;;6.10;;
13079;SDS011;6606;49.154;9.280;2022-10-18T04:09:01;10.63;;;5.90;;
13079;SDS011;6606;49.154;9.280;2022-10-18T04:11:27;10.00;;;5.83;;
13079;SDS011;6606;49.154;9.280;2022-10-18T04:13:55;10.17;;;6.33;;
13079;SDS011;6606;49.154;9.280;2022-10-18T04:16:22;12.20;;;6.17;;
13079;SDS011;6606;49.154;9.280;2022-10-18T04:18:49;8.30;;;5.63;;
13079;SDS011;6606;49.154;9.280;2022-10-18T04:21:15;5.53;;;4.73;;
13079;SDS011;6606;49.154;9.280;2022-10-18T04:23:42;6.23;;;5.10;;
13079;SDS011;6606;49.154;9.280;2022-10-18T04:26:09;8.23;;;5.27;;
13079;SDS011;6606;49.154;9.280;2022-10-18T04:28:35;9.27;;;5.53;;
13079;SDS011;6606;49.154;9.280;2022-10-18T04:31:05;11.43;;;5.50;;
13079;SDS011;6606;49.154;9.280;2022-10-18T04:33:32;7.30;;;4.80;;
13079;SDS011;6606;49.154;9.280;2022-10-18T04:35:59;5.60;;;5.00;;
13079;SDS011;6606;49.154;9.280;2022-10-18T04:38:25;7.13;;;5.23;;
13079;SDS011;6606;49.154;9.280;2022-10-18T04:40:52;12.60;;;6.40;;
13079;SDS011;6606;49.154;9.280;2022-10-18T04:43:19;9.70;;;6.50;;
13079;SDS011;6606;49.154;9.280;2022-10-18T04:45:46;7.13;;;5.60;;
13079;SDS011;6606;49.154;9.280;2022-10-18T04:48:16;10.10;;;6.40;;
13079;SDS011;6606;49.154;9.280;2022-10-18T04:50:43;12.50;;;6.80;;
13079;SDS011;6606;49.154;9.280;2022-10-18T04:53:13;11.10;;;6.93;;
13079;SDS011;6606;49.154;9.280;2022-10-18T04:55:42;9.87;;;5.80;;
13079;SDS011;6606;49.154;9.280;2022-10-18T04:58:09;8.17;;;5.73;;
13079;SDS011;6606;49.154;9.280;2022-10-18T05:00:36;10.07;;;6.70;;
13079;SDS011;6606;49.154;9.280;2022-10-18T05:03:03;7.87;;;5.63;;
13079;SDS011;6606;49.154;9.280;2022-10-18T05:05:31;15.50;;;6.27;;
13079;SDS011;6606;49.154;9.280;2022-10-18T05:07:58;9.30;;;6.00;;
13079;SDS011;6606;49.154;9.280;2022-10-18T05:10:25;11.37;;;7.17;;
13079;SDS011;6606;49.154;9.280;2022-10-18T05:12:51;11.97;;;6.60;;
13079;SDS011;6606;49.154;9.280;2022-10-18T05:15:18;8.57;;;6.03;;
13079;SDS011;6606;49.154;9.280;2022-10-18T05:17:44;14.00;;;6.60;;
13079;SDS011;6606;49.154;9.280;2022-10-18T05:20:11;10.37;;;5.40;;
13079;SDS011;6606;49.154;9.280;2022-10-18T05:22:39;9.27;;;5.83;;
13079;SDS011;6606;49.154;9.280;2022-10-18T05:25:06;12.97;;;6.57;;
13079;SDS011;6606;49.154;9.280;2022-10-18T05:27:33;12.27;;;6.67;;
13079;SDS011;6606;49.154;9.280;2022-10-18T05:30:00;9.13;;;5.50;;
13079;SDS011;6606;49.154;9.280;2022-10-18T05:32:27;10.10;;;5.80;;
13079;SDS011;6606;49.154;9.280;2022-10-18T05:34:53;14.67;;;5.97;;
13079;SDS011;6606;49.154;9.280;2022-10-18T05:37:20;8.03;;;5.73;;
13079;SDS011;6606;49.154;9.280;2022-10-18T05:39:48;12.67;;;6.10;;
13079;SDS011;6606;49.154;9.280;2022-10-18T05:42:15;10.73;;;5.47;;
13079;SDS011;6606;49.154;9.280;2022-10-18T05:44:41;15.20;;;6.63;;
13079;SDS011;6606;49.154;9.280;2022-10-18T05:47:08;10.87;;;6.23;;
13079;SDS011;6606;49.154;9.280;2022-10-18T05:49:34;11.27;;;5.07;;
13079;SDS011;6606;49.154;9.280;2022-10-18T05:52:01;11.43;;;5.70;;
13079;SDS011;6606;49.154;9.280;2022-10-18T05:54:28;8.43;;;6.10;;
13079;SDS011;6606;49.154;9.280;2022-10-18T05:56:56;11.40;;;6.47;;
13079;SDS011;6606;49.154;9.280;2022-10-18T05:59:23;9.43;;;5.87;;
13079;SDS011;6606;49.154;9.280;2022-10-18T06:01:49;16.00;;;6.90;;
13079;SDS011;6606;49.154;9.280;2022-10-18T06:04:16;6.87;;;5.97;;
13079;SDS011;6606;49.154;9.280;2022-10-18T06:06:46;12.40;;;6.60;;
13079;SDS011;6606;49.154;9.280;2022-10-18T06:09:13;7.73;;;5.70;;
13079;SDS011;6606;49.154;9.280;2022-10-18T06:11:44;6.97;;;6.00;;
13079;SDS011;6606;49.154;9.280;2022-10-18T06:14:12;8.80;;;5.67;;
13079;SDS011;6606;49.154;9.280;2022-10-18T06:16:39;9.53;;;6.00;;
13079;SDS011;6606;49.154;9.280;2022-10-18T06:19:06;10.90;;;6.50;;
13079;SDS011;6606;49.154;9.280;2022-10-18T06:21:32;12.67;;;6.93;;
13079;SDS011;6606;49.154;9.280;2022-10-18T06:23:59;12.33;;;6.40;;
13079;SDS011;6606;49.154;9.280;2022-10-18T06:26:26;10.10;;;6.63;;
13079;SDS011;6606;49.154;9.280;2022-10-18T06:28:54;14.27;;;5.90;;
13079;SDS011;6606;49.154;9.280;2022-10-18T06:31:22;8.33;;;5.47;;
13079;SDS011;6606;49.154;9.280;2022-10-18T06:33:49;12.00;;;6.93;;
13079;SDS011;6606;49.154;9.280;2022-10-18T06:36:16;10.80;;;5.90;;
13079;SDS011;6606;49.154;9.280;2022-10-18T06:38:46;12.70;;;6.33;;
13079;SDS011;6606;49.154;9.280;2022-10-18T06:41:13;11.32;;;6.40;;
13079;SDS011;6606;49.154;9.280;2022-10-18T06:43:40;8.33;;;5.57;;
13079;SDS011;6606;49.154;9.280;2022-10-18T06:46:07;11.97;;;5.50;;
13079;SDS011;6606;49.154;9.280;2022-10-18T06:48:37;7.40;;;5.23;;
13079;SDS011;6606;49.154;9.280;2022-10-18T06:51:05;10.23;;;5.30;;
13079;SDS011;6606;49.154;9.280;2022-10-18T06:53:34;7.38;;;5.53;;
13079;SDS011;6606;49.154;9.280;2022-10-18T06:56:03;9.35;;;5.63;;
13079;SDS011;6606;49.154;9.280;2022-10-18T06:58:32;9.82;;;5.90;;
13079;SDS011;6606;49.154;9.280;2022-10-18T07:01:03;10.32;;;5.43;;
13079;SDS011;6606;49.154;9.280;2022-10-18T07:03:31;9.65;;;5.60;;
13079;SDS011;6606;49.154;9.280;2022-10-18T07:06:00;8.15;;;4.93;;
13079;SDS011;6606;49.154;9.280;2022-10-18T07:08:27;13.20;;;6.28;;
13079;SDS011;6606;49.154;9.280;2022-10-18T07:10:54;10.75;;;6.25;;
13079;SDS011;6606;49.154;9.280;2022-10-18T07:13:21;8.30;;;6.40;;
13079;SDS011;6606;49.154;9.280;2022-10-18T07:15:48;10.45;;;5.22;;
13079;SDS011;6606;49.154;9.280;2022-10-18T07:18:24;11.25;;;5.75;;
13079;SDS011;6606;49.154;9.280;2022-10-18T07:20:51;11.38;;;6.53;;
13079;SDS011;6606;49.154;9.280;2022-10-18T07:23:19;10.35;;;6.57;;
13079;SDS011;6606;49.154;9.280;2022-10-18T07:25:48;9.38;;;5.38;;
13079;SDS011;6606;49.154;9.280;2022-10-18T07:28:14;7.65;;;5.10;;
13079;SDS011;6606;49.154;9.280;2022-10-18T07:30:41;12.80;;;6.10;;
13079;SDS011;6606;49.154;9.280;2022-10-18T07:33:08;9.10;;;5.60;;
13079;SDS011;6606;49.154;9.280;2022-10-18T07:35:34;10.82;;;5.80;;
13079;SDS011;6606;49.154;9.280;2022-10-18T07:38:01;7.25;;;5.20;;
13079;SDS011;6606;49.154;9.280;2022-10-18T07:40:30;6.85;;;5.25;;
13079;SDS011;6606;49.154;9.280;2022-10-18T07:42:57;6.82;;;5.20;;
13079;SDS011;6606;49.154;9.280;2022-10-18T07:45:23;10.40;;;4.88;;
13079;SDS011;6606;49.154;9.280;2022-10-18T07:47:52;8.45;;;5.57;;
13079;SDS011;6606;49.154;9.280;2022-10-18T07:50:20;11.55;;;5.78;;
13079;SDS011;6606;49.154;9.280;2022-10-18T07:52:46;9.43;;;5.30;;
13079;SDS011;6606;49.154;9.280;2022-10-18T07:55:13;8.57;;;5.35;;
13079;SDS011;6606;49.154;9.280;2022-10-18T07:57:42;10.50;;;5.28;;
13079;SDS011;6606;49.154;9.280;2022-10-18T08:00:09;8.98;;;5.28;;
13079;SDS011;6606;49.154;9.280;2022-10-18T08:02:38;8.82;;;5.40;;
13079;SDS011;6606;49.154;9.280;2022-10-18T08:05:05;11.65;;;5.50;;
13079;SDS011;6606;49.154;9.280;2022-10-18T08:07:32;9.88;;;5.60;;
13079;SDS011;6606;49.154;9.280;2022-10-18T08:09:58;10.73;;;5.32;;
13079;SDS011;6606;49.154;9.280;2022-10-18T08:12:25;8.57;;;4.70;;
13079;SDS011;6606;49.154;9.280;2022-10-18T08:14:54;11.40;;;5.60;;
13079;SDS011;6606;49.154;9.280;2022-10-18T08:17:20;8.82;;;4.88;;
13079;SDS011;6606;49.154;9.280;2022-10-18T08:19:47;8.98;;;4.97;;
13079;SDS011;6606;49.154;9.280;2022-10-18T08:22:13;9.63;;;5.18;;
13079;SDS011;6606;49.154;9.280;2022-10-18T08:24:41;11.05;;;4.88;;
13079;SDS011;6606;49.154;9.280;2022-10-18T08:27:07;9.15;;;4.93;;
13079;SDS011;6606;49.154;9.280;2022-10-18T08:29:34;9.25;;;5.40;;
13079;SDS011;6606;49.154;9.280;2022-10-18T08:32:02;6.30;;;5.30;;
13079;SDS011;6606;49.154;9.280;2022-10-18T08:34:29;7.80;;;4.60;;
13079;SDS011;6606;49.154;9.280;2022-10-18T08:36:56;10.23;;;4.57;;
13079;SDS011;6606;49.154;9.280;2022-10-18T08:39:22;13.07;;;5.38;;
13079;SDS011;6606;49.154;9.280;2022-10-18T08:44:46;11.73;;;5.32;;
13079;SDS011;6606;49.154;9.280;2022-10-18T08:47:16;10.55;;;5.10;;
13079;SDS011;6606;49.154;9.280;2022-10-18T08:49:45;13.98;;;6.32;;
13079;SDS011;6606;49.154;9.280;2022-10-18T08:52:16;10.65;;;5.97;;
13079;SDS011;6606;49.154;9.280;2022-10-18T08:54:54;9.80;;;5.60;;
13079;SDS011;6606;49.154;9.280;2022-10-18T08:57:26;11.32;;;5.45;;
13079;SDS011;6606;49.154;9.280;2022-10-18T08:59:53;11.68;;;5.63;;
13079;SDS011;6606;49.154;9.280;2022-10-18T09:02:26;11.10;;;6.28;;
13079;SDS011;6606;49.154;9.280;2022-10-18T09:05:06;10.52;;;5.35;;
13079;SDS011;6606;49.154;9.280;2022-10-18T09:07:50;12.90;;;5.70;;
13079;SDS011;6606;49.154;9.280;2022-10-18T09:10:40;11.80;;;5.20;;
13079;SDS011;6606;49.154;9.280;2022-10-18T09:13:15;7.60;;;4.28;;
13079;SDS011;6606;49.154;9.280;2022-10-18T09:15:57;7.95;;;5.05;;
13079;SDS011;6606;49.154;9.280;2022-10-18T09:18:31;11.60;;;5.47;;
13079;SDS011;6606;49.154;9.280;2022-10-18T09:21:14;8.07;;;5.35;;
13079;SDS011;6606;49.154;9.280;2022-10-18T09:23:47;15.90;;;5.43;;
13079;SDS011;6606;49.154;9.280;2022-10-18T09:26:16;8.50;;;5.22;;
13079;SDS011;6606;49.154;9.280;2022-10-18T09:28:48;10.52;;;5.70;;
13079;SDS011;6606;49.154;9.280;2022-10-18T09:31:24;10.60;;;5.32;;
13079;SDS011;6606;49.154;9.280;2022-10-18T09:33:58;8.27;;;5.45;;
13079;SDS011;6606;49.154;9.280;2022-10-18T09:36:28;9.38;;;5.25;;
13079;SDS011;6606;49.154;9.280;2022-10-18T09:39:01;13.85;;;5.78;;
13079;SDS011;6606;49.154;9.280;2022-10-18T09:41:32;7.95;;;5.00;;
13079;SDS011;6606;49.154;9.280;2022-10-18T09:44:08;9.80;;;5.18;;
13079;SDS011;6606;49.154;9.280;2022-10-18T09:46:40;11.63;;;5.25;;
13079;SDS011;6606;49.154;9.280;2022-10-18T09:49:14;9.02;;;4.25;;
13079;SDS011;6606;49.154;9.280;2022-10-18T09:51:44;6.03;;;4.40;;
13079;SDS011;6606;49.154;9.280;2022-10-18T09:54:15;7.07;;;3.40;;
13079;SDS011;6606;49.154;9.280;2022-10-18T09:56:46;5.65;;;3.80;;
13079;SDS011;6606;49.154;9.280;2022-10-18T09:59:26;6.13;;;3.45;;
13079;SDS011;6606;49.154;9.280;2022-10-18T10:01:56;4.68;;;3.65;;
13079;SDS011;6606;49.154;9.280;2022-10-18T10:04:24;4.50;;;3.40;;
13079;SDS011;6606;49.154;9.280;2022-10-18T10:06:51;5.43;;;3.33;;
13079;SDS011;6606;49.154;9.280;2022-10-18T10:09:20;10.27;;;3.85;;
13079;SDS011;6606;49.154;9.280;2022-10-18T10:11:54;8.73;;;3.95;;
13079;SDS011;6606;49.154;9.280;2022-10-18T10:14:22;7.03;;;3.92;;
13079;SDS011;6606;49.154;9.280;2022-10-18T10:16:51;7.90;;;4.00;;
13079;SDS011;6606;49.154;9.280;2022-10-18T10:19:27;8.82;;;3.95;;
13079;SDS011;6606;49.154;9.280;2022-10-18T10:21:58;8.77;;;3.85;;
13079;SDS011;6606;49.154;9.280;2022-10-18T10:24:33;12.07;;;4.03;;
13079;SDS011;6606;49.154;9.280;2022-10-18T10:27:14;7.38;;;3.85;;
13079;SDS011;6606;49.154;9.280;2022-10-18T10:29:49;7.80;;;3.80;;
13079;SDS011;6606;49.154;9.280;2022-10-18T10:32:21;6.43;;;3.90;;
13079;SDS011;6606;49.154;9.280;2022-10-18T10:34:51;5.20;;;3.78;;
13079;SDS011;6606;49.154;9.280;2022-10-18T10:37:25;6.07;;;3.88;;
13079;SDS011;6606;49.154;9.280;2022-10-18T10:45:50;6.68;;;3.83;;
13079;SDS011;6606;49.154;9.280;2022-10-18T10:48:22;8.85;;;3.78;;
13079;SDS011;6606;49.154;9.280;2022-10-18T10:50:53;8.27;;;3.80;;
13079;SDS011;6606;49.154;9.280;2022-10-18T10:53:25;6.22;;;3.60;;
13079;SDS011;6606;49.154;9.280;2022-10-18T10:55:59;6.18;;;3.42;;
13079;SDS011;6606;49.154;9.280;2022-10-18T10:58:29;10.13;;;3.88;;
13079;SDS011;6606;49.154;9.280;2022-10-18T11:01:15;6.13;;;3.47;;
13079;SDS011;6606;49.154;9.280;2022-10-18T11:03:45;5.32;;;3.38;;
13079;SDS011;6606;49.154;9.280;2022-10-18T11:06:24;7.38;;;3.63;;
13079;SDS011;6606;49.154;9.280;2022-10-18T11:09:00;5.40;;;3.55;;
13079;SDS011;6606;49.154;9.280;2022-10-18T11:11:32;6.32;;;3.75;;
13079;SDS011;6606;49.154;9.280;2022-10-18T11:14:12;5.28;;;3.40;;
13079;SDS011;6606;49.154;9.280;2022-10-18T11:16:50;5.72;;;3.40;;
13079;SDS011;6606;49.154;9.280;2022-10-18T11:19:28;10.40;;;3.85;;
13079;SDS011;6606;49.154;9.280;2022-10-18T11:22:03;6.68;;;3.80;;
13079;SDS011;6606;49.154;9.280;2022-10-18T11:24:34;4.95;;;2.97;;
13079;SDS011;6606;49.154;9.280;2022-10-18T11:27:02;9.55;;;3.25;;
13079;SDS011;6606;49.154;9.280;2022-10-18T11:29:38;5.25;;;3.05;;
13079;SDS011;6606;49.154;9.280;2022-10-18T11:32:17;6.15;;;3.17;;
13079;SDS011;6606;49.154;9.280;2022-10-18T11:34:56;6.00;;;3.20;;
13079;SDS011;6606;49.154;9.280;2022-10-18T11:37:42;7.60;;;2.80;;
13079;SDS011;6606;49.154;9.280;2022-10-18T11:40:28;4.82;;;2.75;;
13079;SDS011;6606;49.154;9.280;2022-10-18T11:43:06;8.10;;;3.10;;
13079;SDS011;6606;49.154;9.280;2022-10-18T11:45:40;7.05;;;2.88;;
13079;SDS011;6606;49.154;9.280;2022-10-18T11:48:17;5.53;;;3.00;;
13079;SDS011;6606;49.154;9.280;2022-10-18T11:51:01;5.82;;;2.83;;
13079;SDS011;6606;49.154;9.280;2022-10-18T11:53:35;4.25;;;3.22;;
13079;SDS011;6606;49.154;9.280;2022-10-18T11:56:10;4.38;;;2.97;;
13079;SDS011;6606;49.154;9.280;2022-10-18T11:58:47;6.90;;;3.10;;
13079;SDS011;6606;49.154;9.280;2022-10-18T12:01:30;4.78;;;3.20;;
13079;SDS011;6606;49.154;9.280;2022-10-18T12:04:02;4.00;;;3.00;;
13079;SDS011;6606;49.154;9.280;2022-10-18T12:06:35;5.93;;;3.60;;
13079;SDS011;6606;49.154;9.280;2022-10-18T12:09:06;6.07;;;3.78;;
13079;SDS011;6606;49.154;9.280;2022-10-18T12:11:40;5.53;;;3.30;;
13079;SDS011;6606;49.154;9.280;2022-10-18T12:14:21;8.32;;;3.20;;
13079;SDS011;6606;49.154;9.280;2022-10-18T12:16:52;4.82;;;2.42;;
13079;SDS011;6606;49.154;9.280;2022-10-18T12:19:23;4.07;;;2.85;;
13079;SDS011;6606;49.154;9.280;2022-10-18T12:21:54;5.05;;;3.17;;
13079;SDS011;6606;49.154;9.280;2022-10-18T12:24:25;5.95;;;2.85;;
13079;SDS011;6606;49.154;9.280;2022-10-18T12:26:56;4.75;;;2.80;;
13079;SDS011;6606;49.154;9.280;2022-10-18T12:29:26;6.18;;;3.15;;
13079;SDS011;6606;49.154;9.280;2022-10-18T12:31:57;4.20;;;2.67;;
13079;SDS011;6606;49.154;9.280;2022-10-18T12:34:29;5.10;;;2.55;;
13079;SDS011;6606;49.154;9.280;2022-10-18T12:37:07;3.55;;;2.38;;
13079;SDS011;6606;49.154;9.280;2022-10-18T12:39:46;4.45;;;2.67;;
13079;SDS011;6606;49.154;9.280;2022-10-18T12:42:17;5.50;;;2.90;;
13079;SDS011;6606;49.154;9.280;2022-10-18T12:44:47;2.92;;;2.63;;
13079;SDS011;6606;49.154;9.280;2022-10-18T12:47:19;5.15;;;2.72;;
13079;SDS011;6606;49.154;9.280;2022-10-18T12:49:54;3.90;;;2.97;;
13079;SDS011;6606;49.154;9.280;2022-10-18T12:52:23;5.55;;;3.30;;
13079;SDS011;6606;49.154;9.280;2022-10-18T12:55:04;4.88;;;2.80;;
13079;SDS011;6606;49.154;9.280;2022-10-18T13:00:51;9.35;;;3.90;;
13079;SDS011;6606;49.154;9.280;2022-10-18T13:06:15;7.38;;;3.70;;
13079;SDS011;6606;49.154;9.280;2022-10-18T13:08:42;5.50;;;2.80;;
13079;SDS011;6606;49.154;9.280;2022-10-18T13:11:25;3.30;;;2.80;;
13079;SDS011;6606;49.154;9.280;2022-10-18T13:17:00;5.75;;;2.72;;
13079;SDS011;6606;49.154;9.280;2022-10-18T13:19:34;2.90;;;2.53;;
13079;SDS011;6606;49.154;9.280;2022-10-18T13:22:15;4.15;;;2.65;;
13079;SDS011;6606;49.154;9.280;2022-10-18T13:24:56;3.53;;;2.50;;
13079;SDS011;6606;49.154;9.280;2022-10-18T13:27:32;4.15;;;2.83;;
13079;SDS011;6606;49.154;9.280;2022-10-18T13:30:14;3.67;;;2.50;;
13079;SDS011;6606;49.154;9.280;2022-10-18T13:32:52;5.00;;;3.30;;
13079;SDS011;6606;49.154;9.280;2022-10-18T13:41:08;5.80;;;3.20;;
13079;SDS011;6606;49.154;9.280;2022-10-18T13:50:06;5.38;;;2.60;;
13079;SDS011;6606;49.154;9.280;2022-10-18T13:52:48;3.35;;;2.70;;
13079;SDS011;6606;49.154;9.280;2022-10-18T13:55:39;6.78;;;2.90;;
13079;SDS011;6606;49.154;9.280;2022-10-18T13:58:14;4.00;;;3.00;;
13079;SDS011;6606;49.154;9.280;2022-10-18T14:00:50;4.57;;;3.33;;
13079;SDS011;6606;49.154;9.280;2022-10-18T14:03:34;5.05;;;3.55;;
13079;SDS011;6606;49.154;9.280;2022-10-18T14:06:17;6.90;;;3.15;;
13079;SDS011;6606;49.154;9.280;2022-10-18T14:08:48;4.05;;;3.17;;
13079;SDS011;6606;49.154;9.280;2022-10-18T14:11:22;4.18;;;3.10;;
13079;SDS011;6606;49.154;9.280;2022-10-18T14:14:00;4.95;;;3.22;;
13079;SDS011;6606;49.154;9.280;2022-10-18T14:16:33;4.72;;;3.67;;
13079;SDS011;6606;49.154;9.280;2022-10-18T14:19:10;6.72;;;4.03;;
13079;SDS011;6606;49.154;9.280;2022-10-18T14:21:43;6.82;;;3.45;;
13079;SDS011;6606;49.154;9.280;2022-10-18T14:24:20;4.00;;;3.60;;
13079;SDS011;6606;49.154;9.280;2022-10-18T14:29:38;4.63;;;3.38;;
13079;SDS011;6606;49.154;9.280;2022-10-18T14:32:07;3.78;;;3.30;;
13079;SDS011;6606;49.154;9.280;2022-10-18T14:34:36;5.03;;;3.33;;
13079;SDS011;6606;49.154;9.280;2022-10-18T14:37:05;4.93;;;2.85;;
13079;SDS011;6606;49.154;9.280;2022-10-18T14:39:32;3.90;;;2.60;;
13079;SDS011;6606;49.154;9.280;2022-10-18T14:41:58;7.97;;;2.90;;
13079;SDS011;6606;49.154;9.280;2022-10-18T14:44:26;3.08;;;2.53;;
13079;SDS011;6606;49.154;9.280;2022-10-18T14:46:58;4.93;;;2.58;;
13079;SDS011;6606;49.154;9.280;2022-10-18T14:49:26;4.07;;;2.72;;
13079;SDS011;6606;49.154;9.280;2022-10-18T14:51:55;3.05;;;2.45;;
13079;SDS011;6606;49.154;9.280;2022-10-18T14:54:24;3.92;;;2.30;;
13079;SDS011;6606;49.154;9.280;2022-10-18T14:56:55;2.80;;;2.55;;
13079;SDS011;6606;49.154;9.280;2022-10-18T14:59:22;4.07;;;2.30;;
13079;SDS011;6606;49.154;9.280;2022-10-18T15:01:54;4.43;;;2.65;;
13079;SDS011;6606;49.154;9.280;2022-10-18T15:04:23;4.93;;;2.55;;
13079;SDS011;6606;49.154;9.280;2022-10-18T15:06:56;4.13;;;2.42;;
13079;SDS011;6606;49.154;9.280;2022-10-18T15:09:25;4.75;;;2.33;;
13079;SDS011;6606;49.154;9.280;2022-10-18T15:11:52;2.17;;;1.95;;
13079;SDS011;6606;49.154;9.280;2022-10-18T15:14:22;3.45;;;2.58;;
13079;SDS011;6606;49.154;9.280;2022-10-18T15:16:51;3.45;;;2.08;;
13079;SDS011;6606;49.154;9.280;2022-10-18T15:19:28;3.03;;;2.35;;
13079;SDS011;6606;49.154;9.280;2022-10-18T15:21:59;3.33;;;2.00;;
13079;SDS011;6606;49.154;9.280;2022-10-18T15:24:28;4.85;;;2.10;;
13079;SDS011;6606;49.154;9.280;2022-10-18T15:26:59;6.53;;;2.13;;
13079;SDS011;6606;49.154;9.280;2022-10-18T15:29:33;2.67;;;2.10;;
13079;SDS011;6606;49.154;9.280;2022-10-18T15:32:13;3.55;;;1.92;;
13079;SDS011;6606;49.154;9.280;2022-10-18T15:34:50;5.18;;;2.17;;
13079;SDS011;6606;49.154;9.280;2022-10-18T15:37:26;3.28;;;2.00;;
13079;SDS011;6606;49.154;9.280;2022-10-18T15:43:01;6.25;;;2.13;;
13079;SDS011;6606;49.154;9.280;2022-10-18T15:45:34;3.15;;;2.15;;
13079;SDS011;6606;49.154;9.280;2022-10-18T15:48:15;4.30;;;2.30;;
13079;SDS011;6606;49.154;9.280;2022-10-18T15:50:45;3.13;;;2.10;;
13079;SDS011;6606;49.154;9.280;2022-10-18T15:53:23;3.78;;;2.10;;
13079;SDS011;6606;49.154;9.280;2022-10-18T15:55:59;6.40;;;2.60;;
13079;SDS011;6606;49.154;9.280;2022-10-18T15:58:27;2.63;;;1.98;;